sensor_id;sensor_type;location;lat;lon;timestamp;P1;durP1;ratioP1;P2;durP2;ratioP2
23490;SDS011;14683;50.038;8.078;2023-10-31T02:58:00;0.57;;;0.57;;
23490;SDS011;14683;50.038;8.078;2023-10-31T03:01:01;2.63;;;0.70;;
23490;SDS011;14683;50.038;8.078;2023-10-31T03:04:02;1.25;;;0.60;;
23490;SDS011;14683;50.038;8.078;2023-10-31T03:07:03;1.05;;;0.77;;
23490;SDS011;14683;50.038;8.078;2023-10-31T03:10:05;0.60;;;0.50;;
23490;SDS011;14683;50.038;8.078;2023-10-31T03:13:07;2.05;;;0.77;;
23490;SDS011;14683;50.038;8.078;2023-10-31T03:16:08;0.80;;;0.60;;
23490;SDS011;14683;50.038;8.078;2023-10-31T03:19:09;0.70;;;0.70;;
23490;SDS011;14683;50.038;8.078;2023-10-31T03:22:10;1.17;;;1.00;;
23490;SDS011;14683;50.038;8.078;2023-10-31T03:25:11;0.70;;;0.70;;
23490;SDS011;14683;50.038;8.078;2023-10-31T03:28:19;2.15;;;0.60;;
23490;SDS011;14683;50.038;8.078;2023-10-31T03:31:23;0.95;;;0.60;;
23490;SDS011;14683;50.038;8.078;2023-10-31T03:34:25;1.35;;;0.70;;
23490;SDS011;14683;50.038;8.078;2023-10-31T03:37:26;0.60;;;0.60;;
23490;SDS011;14683;50.038;8.078;2023-10-31T03:40:27;1.08;;;0.43;;
23490;SDS011;14683;50.038;8.078;2023-10-31T03:43:29;1.33;;;0.70;;
23490;SDS011;14683;50.038;8.078;2023-10-31T03:46:30;2.47;;;0.80;;
23490;SDS011;14683;50.038;8.078;2023-10-31T03:49:31;2.17;;;0.70;;
23490;SDS011;14683;50.038;8.078;2023-10-31T03:52:32;2.58;;;0.80;;
23490;SDS011;14683;50.038;8.078;2023-10-31T03:55:33;0.60;;;0.60;;
23490;SDS011;14683;50.038;8.078;2023-10-31T03:58:34;0.50;;;0.47;;
23490;SDS011;14683;50.038;8.078;2023-10-31T04:01:36;0.50;;;0.50;;
23490;SDS011;14683;50.038;8.078;2023-10-31T04:04:37;0.50;;;0.50;;
23490;SDS011;14683;50.038;8.078;2023-10-31T04:07:38;1.90;;;0.43;;
23490;SDS011;14683;50.038;8.078;2023-10-31T04:10:39;0.70;;;0.70;;
23490;SDS011;14683;50.038;8.078;2023-10-31T04:13:40;1.65;;;0.65;;
23490;SDS011;14683;50.038;8.078;2023-10-31T04:16:41;0.60;;;0.60;;
23490;SDS011;14683;50.038;8.078;2023-10-31T04:19:46;0.80;;;0.50;;
23490;SDS011;14683;50.038;8.078;2023-10-31T04:22:47;0.75;;;0.40;;
23490;SDS011;14683;50.038;8.078;2023-10-31T04:25:48;0.40;;;0.40;;
23490;SDS011;14683;50.038;8.078;2023-10-31T04:28:49;2.40;;;0.60;;
23490;SDS011;14683;50.038;8.078;2023-10-31T04:31:50;1.13;;;0.70;;
23490;SDS011;14683;50.038;8.078;2023-10-31T04:34:51;1.40;;;0.45;;
23490;SDS011;14683;50.038;8.078;2023-10-31T04:37:52;0.40;;;0.40;;
23490;SDS011;14683;50.038;8.078;2023-10-31T04:40:54;0.40;;;0.40;;
23490;SDS011;14683;50.038;8.078;2023-10-31T04:43:55;0.50;;;0.50;;
23490;SDS011;14683;50.038;8.078;2023-10-31T04:46:56;0.50;;;0.50;;
23490;SDS011;14683;50.038;8.078;2023-10-31T04:49:57;0.60;;;0.60;;
23490;SDS011;14683;50.038;8.078;2023-10-31T04:52:58;2.25;;;0.55;;
23490;SDS011;14683;50.038;8.078;2023-10-31T04:55:59;1.23;;;0.60;;
23490;SDS011;14683;50.038;8.078;2023-10-31T04:59:01;2.20;;;0.60;;
23490;SDS011;14683;50.038;8.078;2023-10-31T05:02:02;0.80;;;0.43;;
23490;SDS011;14683;50.038;8.078;2023-10-31T05:05:04;0.77;;;0.77;;
23490;SDS011;14683;50.038;8.078;2023-10-31T05:08:05;0.60;;;0.60;;
23490;SDS011;14683;50.038;8.078;2023-10-31T05:11:06;0.90;;;0.50;;
23490;SDS011;14683;50.038;8.078;2023-10-31T05:14:08;0.70;;;0.70;;
23490;SDS011;14683;50.038;8.078;2023-10-31T05:17:09;1.80;;;0.60;;
23490;SDS011;14683;50.038;8.078;2023-10-31T05:20:11;0.45;;;0.45;;
23490;SDS011;14683;50.038;8.078;2023-10-31T05:23:12;1.00;;;0.60;;
23490;SDS011;14683;50.038;8.078;2023-10-31T05:26:13;0.60;;;0.60;;
23490;SDS011;14683;50.038;8.078;2023-10-31T05:29:14;0.90;;;0.65;;
23490;SDS011;14683;50.038;8.078;2023-10-31T05:32:15;0.70;;;0.70;;
23490;SDS011;14683;50.038;8.078;2023-10-31T05:35:16;0.90;;;0.55;;
23490;SDS011;14683;50.038;8.078;2023-10-31T05:38:18;3.30;;;0.52;;
23490;SDS011;14683;50.038;8.078;2023-10-31T05:41:19;0.60;;;0.60;;
23490;SDS011;14683;50.038;8.078;2023-10-31T05:44:20;0.40;;;0.40;;
23490;SDS011;14683;50.038;8.078;2023-10-31T05:47:21;1.70;;;0.75;;
23490;SDS011;14683;50.038;8.078;2023-10-31T05:50:22;2.38;;;0.60;;
23490;SDS011;14683;50.038;8.078;2023-10-31T05:53:23;2.55;;;0.63;;
23490;SDS011;14683;50.038;8.078;2023-10-31T05:56:24;0.60;;;0.60;;
23490;SDS011;14683;50.038;8.078;2023-10-31T05:59:26;0.68;;;0.68;;
23490;SDS011;14683;50.038;8.078;2023-10-31T06:02:27;2.40;;;0.57;;
23490;SDS011;14683;50.038;8.078;2023-10-31T06:05:28;2.08;;;0.70;;
23490;SDS011;14683;50.038;8.078;2023-10-31T06:08:29;1.85;;;0.70;;
23490;SDS011;14683;50.038;8.078;2023-10-31T06:11:30;1.48;;;0.75;;
23490;SDS011;14683;50.038;8.078;2023-10-31T06:14:31;0.60;;;0.60;;
23490;SDS011;14683;50.038;8.078;2023-10-31T06:17:32;1.40;;;0.70;;
23490;SDS011;14683;50.038;8.078;2023-10-31T06:20:35;0.55;;;0.55;;
23490;SDS011;14683;50.038;8.078;2023-10-31T06:23:37;3.83;;;0.60;;
23490;SDS011;14683;50.038;8.078;2023-10-31T06:26:38;0.52;;;0.52;;
23490;SDS011;14683;50.038;8.078;2023-10-31T06:29:40;0.88;;;0.70;;
23490;SDS011;14683;50.038;8.078;2023-10-31T06:32:41;0.60;;;0.60;;
23490;SDS011;14683;50.038;8.078;2023-10-31T06:35:42;1.10;;;0.63;;
23490;SDS011;14683;50.038;8.078;2023-10-31T06:38:43;0.70;;;0.70;;
23490;SDS011;14683;50.038;8.078;2023-10-31T06:41:45;1.30;;;0.90;;
23490;SDS011;14683;50.038;8.078;2023-10-31T06:44:46;1.02;;;0.60;;
23490;SDS011;14683;50.038;8.078;2023-10-31T06:47:47;2.85;;;0.73;;
23490;SDS011;14683;50.038;8.078;2023-10-31T06:50:48;0.80;;;0.50;;
23490;SDS011;14683;50.038;8.078;2023-10-31T06:53:49;1.70;;;0.80;;
23490;SDS011;14683;50.038;8.078;2023-10-31T06:56:52;1.55;;;0.70;;
23490;SDS011;14683;50.038;8.078;2023-10-31T06:59:53;0.85;;;0.60;;
23490;SDS011;14683;50.038;8.078;2023-10-31T07:02:54;1.20;;;0.60;;
23490;SDS011;14683;50.038;8.078;2023-10-31T07:05:55;1.20;;;0.60;;
23490;SDS011;14683;50.038;8.078;2023-10-31T07:08:57;1.05;;;0.70;;
23490;SDS011;14683;50.038;8.078;2023-10-31T07:11:58;3.00;;;0.80;;
23490;SDS011;14683;50.038;8.078;2023-10-31T07:14:59;0.80;;;0.80;;
23490;SDS011;14683;50.038;8.078;2023-10-31T07:18:00;3.83;;;0.68;;
23490;SDS011;14683;50.038;8.078;2023-10-31T07:21:01;3.35;;;0.70;;
23490;SDS011;14683;50.038;8.078;2023-10-31T07:24:03;0.60;;;0.60;;
23490;SDS011;14683;50.038;8.078;2023-10-31T07:27:04;0.80;;;0.60;;
23490;SDS011;14683;50.038;8.078;2023-10-31T07:30:05;0.70;;;0.70;;
23490;SDS011;14683;50.038;8.078;2023-10-31T07:33:07;1.20;;;0.93;;
23490;SDS011;14683;50.038;8.078;2023-10-31T07:36:08;1.17;;;0.70;;
23490;SDS011;14683;50.038;8.078;2023-10-31T07:39:09;1.13;;;0.80;;
23490;SDS011;14683;50.038;8.078;2023-10-31T07:42:10;2.00;;;0.70;;
23490;SDS011;14683;50.038;8.078;2023-10-31T07:45:12;1.17;;;0.63;;
23490;SDS011;14683;50.038;8.078;2023-10-31T07:48:13;1.17;;;0.80;;
23490;SDS011;14683;50.038;8.078;2023-10-31T07:51:14;1.67;;;0.70;;
23490;SDS011;14683;50.038;8.078;2023-10-31T07:54:15;1.95;;;0.68;;
23490;SDS011;14683;50.038;8.078;2023-10-31T07:57:17;1.40;;;0.80;;
23490;SDS011;14683;50.038;8.078;2023-10-31T08:00:18;1.30;;;0.70;;
23490;SDS011;14683;50.038;8.078;2023-10-31T08:03:19;2.38;;;1.10;;
23490;SDS011;14683;50.038;8.078;2023-10-31T08:06:20;1.23;;;0.80;;
23490;SDS011;14683;50.038;8.078;2023-10-31T08:09:21;1.60;;;0.70;;
23490;SDS011;14683;50.038;8.078;2023-10-31T08:12:22;0.60;;;0.60;;
23490;SDS011;14683;50.038;8.078;2023-10-31T08:15:23;1.35;;;0.68;;
23490;SDS011;14683;50.038;8.078;2023-10-31T08:18:25;0.70;;;0.70;;
23490;SDS011;14683;50.038;8.078;2023-10-31T08:21:26;1.23;;;0.60;;
23490;SDS011;14683;50.038;8.078;2023-10-31T08:24:29;2.05;;;0.75;;
23490;SDS011;14683;50.038;8.078;2023-10-31T08:27:30;1.08;;;0.93;;
23490;SDS011;14683;50.038;8.078;2023-10-31T08:30:31;1.65;;;0.77;;
23490;SDS011;14683;50.038;8.078;2023-10-31T08:33:32;0.80;;;0.80;;
23490;SDS011;14683;50.038;8.078;2023-10-31T08:36:33;0.82;;;0.82;;
23490;SDS011;14683;50.038;8.078;2023-10-31T08:39:34;1.55;;;0.70;;
23490;SDS011;14683;50.038;8.078;2023-10-31T08:42:35;1.20;;;0.85;;
23490;SDS011;14683;50.038;8.078;2023-10-31T08:45:36;1.08;;;0.60;;
23490;SDS011;14683;50.038;8.078;2023-10-31T08:48:37;0.73;;;0.60;;
23490;SDS011;14683;50.038;8.078;2023-10-31T08:51:39;2.83;;;0.82;;
23490;SDS011;14683;50.038;8.078;2023-10-31T08:54:40;1.95;;;0.73;;
23490;SDS011;14683;50.038;8.078;2023-10-31T08:57:41;0.93;;;0.70;;
23490;SDS011;14683;50.038;8.078;2023-10-31T09:00:42;1.08;;;0.80;;
23490;SDS011;14683;50.038;8.078;2023-10-31T09:03:43;2.03;;;0.60;;
23490;SDS011;14683;50.038;8.078;2023-10-31T09:06:45;1.08;;;0.50;;
23490;SDS011;14683;50.038;8.078;2023-10-31T09:09:46;1.80;;;0.70;;
23490;SDS011;14683;50.038;8.078;2023-10-31T09:12:47;2.22;;;0.50;;
23490;SDS011;14683;50.038;8.078;2023-10-31T09:15:48;35.03;;;3.08;;
23490;SDS011;14683;50.038;8.078;2023-10-31T09:18:50;0.98;;;0.90;;
23490;SDS011;14683;50.038;8.078;2023-10-31T09:21:52;1.95;;;0.60;;
23490;SDS011;14683;50.038;8.078;2023-10-31T09:24:53;1.20;;;0.63;;
23490;SDS011;14683;50.038;8.078;2023-10-31T09:27:55;0.80;;;0.80;;
23490;SDS011;14683;50.038;8.078;2023-10-31T09:30:56;0.73;;;0.60;;
23490;SDS011;14683;50.038;8.078;2023-10-31T09:33:57;1.02;;;0.90;;
23490;SDS011;14683;50.038;8.078;2023-10-31T09:36:58;1.55;;;1.00;;
23490;SDS011;14683;50.038;8.078;2023-10-31T09:39:59;0.73;;;0.73;;
23490;SDS011;14683;50.038;8.078;2023-10-31T09:43:00;0.57;;;0.43;;
23490;SDS011;14683;50.038;8.078;2023-10-31T09:46:01;1.83;;;0.95;;
23490;SDS011;14683;50.038;8.078;2023-10-31T09:49:04;1.02;;;0.73;;
23490;SDS011;14683;50.038;8.078;2023-10-31T09:52:05;1.33;;;0.70;;
23490;SDS011;14683;50.038;8.078;2023-10-31T09:55:08;1.30;;;0.70;;
23490;SDS011;14683;50.038;8.078;2023-10-31T09:58:09;1.40;;;0.80;;
23490;SDS011;14683;50.038;8.078;2023-10-31T10:01:10;2.35;;;0.70;;
23490;SDS011;14683;50.038;8.078;2023-10-31T10:04:12;1.00;;;0.52;;
23490;SDS011;14683;50.038;8.078;2023-10-31T10:07:13;2.40;;;0.65;;
23490;SDS011;14683;50.038;8.078;2023-10-31T10:10:17;0.77;;;0.77;;
23490;SDS011;14683;50.038;8.078;2023-10-31T10:13:18;2.08;;;0.60;;
23490;SDS011;14683;50.038;8.078;2023-10-31T10:16:27;2.42;;;0.80;;
23490;SDS011;14683;50.038;8.078;2023-10-31T10:19:33;1.13;;;0.50;;
23490;SDS011;14683;50.038;8.078;2023-10-31T10:22:38;0.77;;;0.70;;
23490;SDS011;14683;50.038;8.078;2023-10-31T10:25:40;0.57;;;0.50;;
23490;SDS011;14683;50.038;8.078;2023-10-31T10:28:46;1.05;;;0.80;;
23490;SDS011;14683;50.038;8.078;2023-10-31T10:31:48;2.63;;;0.82;;
23490;SDS011;14683;50.038;8.078;2023-10-31T10:34:49;0.88;;;0.77;;
23490;SDS011;14683;50.038;8.078;2023-10-31T10:37:51;0.77;;;0.60;;
23490;SDS011;14683;50.038;8.078;2023-10-31T10:40:53;1.65;;;1.00;;
23490;SDS011;14683;50.038;8.078;2023-10-31T10:44:03;1.95;;;0.90;;
23490;SDS011;14683;50.038;8.078;2023-10-31T10:47:06;1.30;;;0.75;;
23490;SDS011;14683;50.038;8.078;2023-10-31T10:50:07;1.25;;;0.70;;
23490;SDS011;14683;50.038;8.078;2023-10-31T10:53:23;1.15;;;0.73;;
23490;SDS011;14683;50.038;8.078;2023-10-31T10:56:30;2.08;;;0.82;;
23490;SDS011;14683;50.038;8.078;2023-10-31T10:59:40;1.95;;;0.80;;
23490;SDS011;14683;50.038;8.078;2023-10-31T11:02:43;1.65;;;0.70;;
23490;SDS011;14683;50.038;8.078;2023-10-31T11:05:44;2.40;;;0.80;;
23490;SDS011;14683;50.038;8.078;2023-10-31T11:08:46;1.35;;;0.75;;
23490;SDS011;14683;50.038;8.078;2023-10-31T11:11:48;2.15;;;0.75;;
23490;SDS011;14683;50.038;8.078;2023-10-31T11:14:49;2.63;;;1.08;;
23490;SDS011;14683;50.038;8.078;2023-10-31T11:17:51;1.95;;;0.95;;
23490;SDS011;14683;50.038;8.078;2023-10-31T11:20:53;1.17;;;1.00;;
23490;SDS011;14683;50.038;8.078;2023-10-31T11:23:57;2.53;;;0.90;;
23490;SDS011;14683;50.038;8.078;2023-10-31T11:27:00;2.90;;;0.80;;
23490;SDS011;14683;50.038;8.078;2023-10-31T11:30:06;3.20;;;0.70;;
23490;SDS011;14683;50.038;8.078;2023-10-31T11:33:15;3.65;;;1.02;;
23490;SDS011;14683;50.038;8.078;2023-10-31T11:36:17;3.05;;;1.30;;
23490;SDS011;14683;50.038;8.078;2023-10-31T11:39:21;3.83;;;1.20;;
23490;SDS011;14683;50.038;8.078;2023-10-31T11:42:26;2.30;;;0.82;;
23490;SDS011;14683;50.038;8.078;2023-10-31T11:45:33;2.88;;;0.75;;
23490;SDS011;14683;50.038;8.078;2023-10-31T11:48:45;2.33;;;1.10;;
23490;SDS011;14683;50.038;8.078;2023-10-31T11:51:47;2.67;;;0.75;;
23490;SDS011;14683;50.038;8.078;2023-10-31T11:54:48;3.40;;;0.90;;
23490;SDS011;14683;50.038;8.078;2023-10-31T11:57:50;2.17;;;1.00;;
23490;SDS011;14683;50.038;8.078;2023-10-31T12:00:52;3.03;;;1.20;;
23490;SDS011;14683;50.038;8.078;2023-10-31T12:03:57;1.30;;;0.90;;
23490;SDS011;14683;50.038;8.078;2023-10-31T12:06:59;2.25;;;1.00;;
23490;SDS011;14683;50.038;8.078;2023-10-31T12:10:01;2.45;;;1.08;;
23490;SDS011;14683;50.038;8.078;2023-10-31T12:13:02;3.97;;;0.95;;
23490;SDS011;14683;50.038;8.078;2023-10-31T12:16:04;2.38;;;0.88;;
23490;SDS011;14683;50.038;8.078;2023-10-31T12:19:07;1.75;;;0.93;;
23490;SDS011;14683;50.038;8.078;2023-10-31T12:22:15;1.77;;;0.70;;
23490;SDS011;14683;50.038;8.078;2023-10-31T12:25:16;1.65;;;1.02;;
23490;SDS011;14683;50.038;8.078;2023-10-31T12:28:18;2.22;;;0.85;;
23490;SDS011;14683;50.038;8.078;2023-10-31T12:31:19;2.05;;;0.80;;
23490;SDS011;14683;50.038;8.078;2023-10-31T12:34:21;0.88;;;0.68;;
23490;SDS011;14683;50.038;8.078;2023-10-31T12:37:23;2.33;;;0.80;;
23490;SDS011;14683;50.038;8.078;2023-10-31T12:40:24;2.25;;;0.60;;
23490;SDS011;14683;50.038;8.078;2023-10-31T12:43:25;2.17;;;0.88;;
23490;SDS011;14683;50.038;8.078;2023-10-31T12:46:28;3.08;;;1.00;;
23490;SDS011;14683;50.038;8.078;2023-10-31T12:49:30;2.30;;;0.77;;
23490;SDS011;14683;50.038;8.078;2023-10-31T12:55:54;5.28;;;0.90;;
23490;SDS011;14683;50.038;8.078;2023-10-31T12:58:58;4.13;;;1.15;;
23490;SDS011;14683;50.038;8.078;2023-10-31T13:01:59;1.40;;;0.88;;
23490;SDS011;14683;50.038;8.078;2023-10-31T13:05:14;4.03;;;0.93;;
23490;SDS011;14683;50.038;8.078;2023-10-31T13:08:19;6.40;;;1.53;;
23490;SDS011;14683;50.038;8.078;2023-10-31T13:11:20;2.30;;;0.70;;
23490;SDS011;14683;50.038;8.078;2023-10-31T13:14:26;3.20;;;0.77;;
23490;SDS011;14683;50.038;8.078;2023-10-31T13:17:27;1.90;;;0.90;;
23490;SDS011;14683;50.038;8.078;2023-10-31T13:20:28;1.63;;;1.02;;
23490;SDS011;14683;50.038;8.078;2023-10-31T13:23:31;1.73;;;0.80;;
23490;SDS011;14683;50.038;8.078;2023-10-31T13:26:32;1.75;;;0.70;;
23490;SDS011;14683;50.038;8.078;2023-10-31T13:29:33;3.70;;;0.85;;
23490;SDS011;14683;50.038;8.078;2023-10-31T13:32:34;2.88;;;0.60;;
23490;SDS011;14683;50.038;8.078;2023-10-31T13:35:35;3.10;;;0.90;;
23490;SDS011;14683;50.038;8.078;2023-10-31T13:38:37;3.28;;;0.80;;
23490;SDS011;14683;50.038;8.078;2023-10-31T13:41:39;1.73;;;0.57;;
23490;SDS011;14683;50.038;8.078;2023-10-31T13:44:40;3.40;;;0.90;;
23490;SDS011;14683;50.038;8.078;2023-10-31T13:47:42;2.80;;;0.90;;
23490;SDS011;14683;50.038;8.078;2023-10-31T13:50:43;1.70;;;0.90;;
23490;SDS011;14683;50.038;8.078;2023-10-31T13:53:44;4.57;;;1.17;;
23490;SDS011;14683;50.038;8.078;2023-10-31T13:56:46;4.65;;;1.00;;
23490;SDS011;14683;50.038;8.078;2023-10-31T13:59:49;2.35;;;1.00;;
23490;SDS011;14683;50.038;8.078;2023-10-31T14:02:51;4.72;;;0.88;;
23490;SDS011;14683;50.038;8.078;2023-10-31T14:05:52;3.10;;;0.88;;
23490;SDS011;14683;50.038;8.078;2023-10-31T14:08:53;3.58;;;0.70;;
23490;SDS011;14683;50.038;8.078;2023-10-31T14:11:54;3.30;;;1.00;;
23490;SDS011;14683;50.038;8.078;2023-10-31T14:14:55;3.03;;;0.77;;
23490;SDS011;14683;50.038;8.078;2023-10-31T14:17:57;1.90;;;0.60;;
23490;SDS011;14683;50.038;8.078;2023-10-31T14:20:58;2.95;;;0.60;;
23490;SDS011;14683;50.038;8.078;2023-10-31T14:23:59;2.42;;;0.70;;
23490;SDS011;14683;50.038;8.078;2023-10-31T14:27:01;0.80;;;0.63;;
23490;SDS011;14683;50.038;8.078;2023-10-31T14:30:02;4.15;;;1.30;;
23490;SDS011;14683;50.038;8.078;2023-10-31T14:33:03;5.43;;;3.28;;
23490;SDS011;14683;50.038;8.078;2023-10-31T14:36:05;5.40;;;4.30;;
23490;SDS011;14683;50.038;8.078;2023-10-31T14:39:06;4.25;;;1.40;;
23490;SDS011;14683;50.038;8.078;2023-10-31T14:42:08;2.08;;;0.60;;
23490;SDS011;14683;50.038;8.078;2023-10-31T14:45:09;1.88;;;0.60;;
23490;SDS011;14683;50.038;8.078;2023-10-31T14:48:10;3.75;;;0.70;;
23490;SDS011;14683;50.038;8.078;2023-10-31T14:51:11;4.25;;;0.98;;
23490;SDS011;14683;50.038;8.078;2023-10-31T14:54:13;2.28;;;0.70;;
23490;SDS011;14683;50.038;8.078;2023-10-31T14:57:14;1.30;;;0.65;;
23490;SDS011;14683;50.038;8.078;2023-10-31T15:00:15;1.75;;;0.70;;
23490;SDS011;14683;50.038;8.078;2023-10-31T15:03:17;2.65;;;0.70;;
23490;SDS011;14683;50.038;8.078;2023-10-31T15:06:18;2.78;;;0.60;;
23490;SDS011;14683;50.038;8.078;2023-10-31T15:09:19;1.52;;;0.57;;
23490;SDS011;14683;50.038;8.078;2023-10-31T15:12:21;1.90;;;0.80;;
23490;SDS011;14683;50.038;8.078;2023-10-31T15:15:22;2.88;;;0.80;;
23490;SDS011;14683;50.038;8.078;2023-10-31T15:18:23;1.35;;;0.80;;
23490;SDS011;14683;50.038;8.078;2023-10-31T15:21:24;2.80;;;1.17;;
23490;SDS011;14683;50.038;8.078;2023-10-31T15:24:26;1.75;;;1.00;;
23490;SDS011;14683;50.038;8.078;2023-10-31T15:27:30;2.45;;;1.17;;
23490;SDS011;14683;50.038;8.078;2023-10-31T15:30:32;1.77;;;1.15;;
23490;SDS011;14683;50.038;8.078;2023-10-31T15:33:33;1.95;;;1.48;;
23490;SDS011;14683;50.038;8.078;2023-10-31T15:36:34;1.80;;;1.10;;
23490;SDS011;14683;50.038;8.078;2023-10-31T15:39:36;1.63;;;0.93;;
23490;SDS011;14683;50.038;8.078;2023-10-31T15:42:37;2.47;;;1.08;;
23490;SDS011;14683;50.038;8.078;2023-10-31T15:45:38;1.88;;;1.10;;
23490;SDS011;14683;50.038;8.078;2023-10-31T15:48:40;3.90;;;1.50;;
23490;SDS011;14683;50.038;8.078;2023-10-31T15:51:42;3.58;;;1.02;;
23490;SDS011;14683;50.038;8.078;2023-10-31T15:54:43;2.45;;;1.10;;
23490;SDS011;14683;50.038;8.078;2023-10-31T15:57:44;2.08;;;1.27;;
23490;SDS011;14683;50.038;8.078;2023-10-31T16:00:46;4.38;;;1.20;;
23490;SDS011;14683;50.038;8.078;2023-10-31T16:03:47;3.85;;;1.50;;
23490;SDS011;14683;50.038;8.078;2023-10-31T16:06:48;3.63;;;1.50;;
23490;SDS011;14683;50.038;8.078;2023-10-31T16:09:49;4.75;;;2.30;;
23490;SDS011;14683;50.038;8.078;2023-10-31T16:12:50;3.63;;;1.55;;
23490;SDS011;14683;50.038;8.078;2023-10-31T16:15:51;3.72;;;1.60;;
23490;SDS011;14683;50.038;8.078;2023-10-31T16:18:53;4.32;;;1.83;;
23490;SDS011;14683;50.038;8.078;2023-10-31T16:21:54;2.10;;;1.58;;
23490;SDS011;14683;50.038;8.078;2023-10-31T16:24:55;2.63;;;1.10;;
23490;SDS011;14683;50.038;8.078;2023-10-31T16:27:56;2.38;;;1.40;;
23490;SDS011;14683;50.038;8.078;2023-10-31T16:30:58;2.70;;;1.10;;
23490;SDS011;14683;50.038;8.078;2023-10-31T16:33:59;4.57;;;1.25;;
23490;SDS011;14683;50.038;8.078;2023-10-31T16:37:00;1.60;;;1.15;;
23490;SDS011;14683;50.038;8.078;2023-10-31T16:40:01;0.80;;;0.80;;
23490;SDS011;14683;50.038;8.078;2023-10-31T16:43:03;2.92;;;0.68;;
23490;SDS011;14683;50.038;8.078;2023-10-31T16:46:04;1.63;;;0.85;;
23490;SDS011;14683;50.038;8.078;2023-10-31T16:49:05;1.83;;;0.82;;
23490;SDS011;14683;50.038;8.078;2023-10-31T16:52:07;1.63;;;0.70;;
23490;SDS011;14683;50.038;8.078;2023-10-31T16:55:09;1.45;;;0.60;;
23490;SDS011;14683;50.038;8.078;2023-10-31T16:58:10;1.35;;;0.90;;
23490;SDS011;14683;50.038;8.078;2023-10-31T17:01:13;4.35;;;1.00;;
23490;SDS011;14683;50.038;8.078;2023-10-31T17:04:14;1.13;;;0.75;;
23490;SDS011;14683;50.038;8.078;2023-10-31T17:07:15;2.03;;;0.80;;
23490;SDS011;14683;50.038;8.078;2023-10-31T17:10:16;1.05;;;0.60;;
23490;SDS011;14683;50.038;8.078;2023-10-31T17:13:18;2.35;;;0.80;;
23490;SDS011;14683;50.038;8.078;2023-10-31T17:16:19;3.50;;;1.23;;
23490;SDS011;14683;50.038;8.078;2023-10-31T17:19:20;1.98;;;1.05;;
23490;SDS011;14683;50.038;8.078;2023-10-31T17:22:22;2.42;;;1.35;;
23490;SDS011;14683;50.038;8.078;2023-10-31T17:25:23;2.17;;;1.25;;
23490;SDS011;14683;50.038;8.078;2023-10-31T17:28:24;2.47;;;1.40;;
23490;SDS011;14683;50.038;8.078;2023-10-31T17:31:25;3.17;;;1.10;;
23490;SDS011;14683;50.038;8.078;2023-10-31T17:34:26;1.73;;;1.02;;
23490;SDS011;14683;50.038;8.078;2023-10-31T17:37:27;1.80;;;1.25;;
23490;SDS011;14683;50.038;8.078;2023-10-31T17:40:29;1.20;;;1.10;;
23490;SDS011;14683;50.038;8.078;2023-10-31T17:43:31;3.85;;;1.30;;
23490;SDS011;14683;50.038;8.078;2023-10-31T17:46:32;3.03;;;1.50;;
23490;SDS011;14683;50.038;8.078;2023-10-31T17:49:33;1.75;;;1.02;;
23490;SDS011;14683;50.038;8.078;2023-10-31T17:52:34;3.22;;;1.50;;
23490;SDS011;14683;50.038;8.078;2023-10-31T17:55:36;1.70;;;1.10;;
23490;SDS011;14683;50.038;8.078;2023-10-31T17:58:37;1.15;;;0.88;;
23490;SDS011;14683;50.038;8.078;2023-10-31T18:01:39;1.88;;;1.45;;
23490;SDS011;14683;50.038;8.078;2023-10-31T18:04:40;3.33;;;1.30;;
23490;SDS011;14683;50.038;8.078;2023-10-31T18:07:41;3.80;;;1.20;;
23490;SDS011;14683;50.038;8.078;2023-10-31T18:10:42;3.50;;;1.50;;
23490;SDS011;14683;50.038;8.078;2023-10-31T18:13:43;3.78;;;1.50;;
23490;SDS011;14683;50.038;8.078;2023-10-31T18:16:44;2.83;;;1.40;;
23490;SDS011;14683;50.038;8.078;2023-10-31T18:19:45;3.15;;;1.52;;
23490;SDS011;14683;50.038;8.078;2023-10-31T18:22:47;3.45;;;1.63;;
23490;SDS011;14683;50.038;8.078;2023-10-31T18:25:48;1.35;;;1.25;;
23490;SDS011;14683;50.038;8.078;2023-10-31T18:28:52;3.90;;;1.42;;
23490;SDS011;14683;50.038;8.078;2023-10-31T18:31:53;4.03;;;1.52;;
23490;SDS011;14683;50.038;8.078;2023-10-31T18:34:56;3.25;;;1.42;;
23490;SDS011;14683;50.038;8.078;2023-10-31T18:37:57;2.92;;;1.30;;
23490;SDS011;14683;50.038;8.078;2023-10-31T18:40:59;3.50;;;1.70;;
23490;SDS011;14683;50.038;8.078;2023-10-31T18:44:00;1.75;;;1.27;;
23490;SDS011;14683;50.038;8.078;2023-10-31T18:47:01;1.63;;;1.50;;
23490;SDS011;14683;50.038;8.078;2023-10-31T18:50:02;2.10;;;1.48;;
23490;SDS011;14683;50.038;8.078;2023-10-31T18:53:07;3.28;;;1.35;;
23490;SDS011;14683;50.038;8.078;2023-10-31T18:56:08;2.55;;;1.73;;
23490;SDS011;14683;50.038;8.078;2023-10-31T18:59:09;3.65;;;1.40;;
23490;SDS011;14683;50.038;8.078;2023-10-31T19:02:10;4.20;;;1.55;;
23490;SDS011;14683;50.038;8.078;2023-10-31T19:05:11;3.70;;;1.63;;
23490;SDS011;14683;50.038;8.078;2023-10-31T19:08:13;2.28;;;1.80;;
23490;SDS011;14683;50.038;8.078;2023-10-31T19:11:14;2.83;;;1.60;;
23490;SDS011;14683;50.038;8.078;2023-10-31T19:14:16;2.05;;;1.40;;
23490;SDS011;14683;50.038;8.078;2023-10-31T19:17:17;3.03;;;1.70;;
23490;SDS011;14683;50.038;8.078;2023-10-31T19:20:18;2.22;;;1.50;;
23490;SDS011;14683;50.038;8.078;2023-10-31T19:23:19;2.95;;;1.60;;
23490;SDS011;14683;50.038;8.078;2023-10-31T19:26:20;3.67;;;1.73;;
23490;SDS011;14683;50.038;8.078;2023-10-31T19:29:22;2.75;;;1.58;;
23490;SDS011;14683;50.038;8.078;2023-10-31T19:32:23;3.15;;;1.73;;
23490;SDS011;14683;50.038;8.078;2023-10-31T19:35:24;4.05;;;1.58;;
23490;SDS011;14683;50.038;8.078;2023-10-31T19:38:25;4.95;;;1.77;;
23490;SDS011;14683;50.038;8.078;2023-10-31T19:41:29;3.78;;;1.40;;
23490;SDS011;14683;50.038;8.078;2023-10-31T19:44:31;2.78;;;1.50;;
23490;SDS011;14683;50.038;8.078;2023-10-31T19:47:33;2.88;;;1.70;;
23490;SDS011;14683;50.038;8.078;2023-10-31T19:50:34;2.17;;;1.40;;
23490;SDS011;14683;50.038;8.078;2023-10-31T19:53:35;2.13;;;1.38;;
23490;SDS011;14683;50.038;8.078;2023-10-31T19:56:36;4.70;;;1.73;;
23490;SDS011;14683;50.038;8.078;2023-10-31T19:59:38;2.15;;;1.60;;
23490;SDS011;14683;50.038;8.078;2023-10-31T20:02:39;3.00;;;1.15;;
23490;SDS011;14683;50.038;8.078;2023-10-31T20:05:41;2.13;;;1.33;;
23490;SDS011;14683;50.038;8.078;2023-10-31T20:08:43;4.25;;;1.60;;
23490;SDS011;14683;50.038;8.078;2023-10-31T20:11:44;1.70;;;1.60;;
23490;SDS011;14683;50.038;8.078;2023-10-31T20:14:45;2.78;;;1.42;;
23490;SDS011;14683;50.038;8.078;2023-10-31T20:17:46;1.65;;;1.42;;
23490;SDS011;14683;50.038;8.078;2023-10-31T20:20:48;2.95;;;1.70;;
23490;SDS011;14683;50.038;8.078;2023-10-31T20:23:49;2.55;;;1.55;;
23490;SDS011;14683;50.038;8.078;2023-10-31T20:26:53;4.00;;;1.67;;
23490;SDS011;14683;50.038;8.078;2023-10-31T20:29:54;3.45;;;1.40;;
23490;SDS011;14683;50.038;8.078;2023-10-31T20:32:55;2.55;;;1.80;;
23490;SDS011;14683;50.038;8.078;2023-10-31T20:35:56;1.85;;;1.73;;
23490;SDS011;14683;50.038;8.078;2023-10-31T20:38:57;3.15;;;1.35;;
23490;SDS011;14683;50.038;8.078;2023-10-31T20:41:59;1.58;;;1.48;;
23490;SDS011;14683;50.038;8.078;2023-10-31T20:45:00;2.92;;;1.65;;
23490;SDS011;14683;50.038;8.078;2023-10-31T20:48:01;5.20;;;1.98;;
23490;SDS011;14683;50.038;8.078;2023-10-31T20:51:02;2.92;;;1.50;;
23490;SDS011;14683;50.038;8.078;2023-10-31T20:54:04;4.10;;;1.50;;
